sensor_id;sensor_type;location;lat;lon;timestamp;pressure;altitude;pressure_sealevel;temperature;humidity
41234;BME280;26968;42.686;23.352;2023-06-14T00:01:11;94956.72;;;17.91;83.24
41234;BME280;26968;42.686;23.352;2023-06-14T00:03:38;94885.50;;;17.44;83.25
41234;BME280;26968;42.686;23.352;2023-06-14T00:06:04;94940.13;;;17.98;82.68
41234;BME280;26968;42.686;23.352;2023-06-14T00:08:30;94880.88;;;17.61;82.17
41234;BME280;26968;42.686;23.352;2023-06-14T00:10:55;94953.47;;;18.06;82.98
41234;BME280;26968;42.686;23.352;2023-06-14T00:13:21;94931.13;;;17.94;82.34
41234;BME280;26968;42.686;23.352;2023-06-14T00:15:46;94898.41;;;17.80;82.34
41234;BME280;26968;42.686;23.352;2023-06-14T00:18:12;94898.94;;;17.94;82.23
41234;BME280;26968;42.686;23.352;2023-06-14T00:20:38;94875.63;;;17.86;81.86
41234;BME280;26968;42.686;23.352;2023-06-14T00:23:04;94902.44;;;18.15;81.84
41234;BME280;26968;42.686;23.352;2023-06-14T00:25:30;94920.63;;;18.30;82.19
41234;BME280;26968;42.686;23.352;2023-06-14T00:27:56;94933.66;;;18.40;82.22
41234;BME280;26968;42.686;23.352;2023-06-14T00:30:22;94889.81;;;18.16;82.04
41234;BME280;26968;42.686;23.352;2023-06-14T00:32:48;94922.91;;;18.20;81.12
41234;BME280;26968;42.686;23.352;2023-06-14T00:35:14;94881.78;;;17.86;81.85
41234;BME280;26968;42.686;23.352;2023-06-14T00:37:40;94901.50;;;18.11;81.23
41234;BME280;26968;42.686;23.352;2023-06-14T00:40:06;94902.63;;;18.10;81.57
41234;BME280;26968;42.686;23.352;2023-06-14T00:42:32;94924.38;;;18.38;81.68
41234;BME280;26968;42.686;23.352;2023-06-14T00:44:57;94921.78;;;18.41;81.59
41234;BME280;26968;42.686;23.352;2023-06-14T00:47:23;94837.59;;;17.92;81.68
41234;BME280;26968;42.686;23.352;2023-06-14T00:49:49;94923.16;;;18.47;81.90
41234;BME280;26968;42.686;23.352;2023-06-14T00:52:18;94843.06;;;17.96;81.98
41234;BME280;26968;42.686;23.352;2023-06-14T00:54:44;94921.72;;;18.50;82.21
41234;BME280;26968;42.686;23.352;2023-06-14T00:57:10;94915.88;;;18.48;82.15
41234;BME280;26968;42.686;23.352;2023-06-14T00:59:44;94917.00;;;18.47;81.95
41234;BME280;26968;42.686;23.352;2023-06-14T01:02:10;94865.66;;;18.16;81.95
41234;BME280;26968;42.686;23.352;2023-06-14T01:04:37;94844.00;;;18.00;81.91
41234;BME280;26968;42.686;23.352;2023-06-14T01:07:30;94914.06;;;18.40;81.80
41234;BME280;26968;42.686;23.352;2023-06-14T01:13:07;94920.44;;;18.35;81.03
41234;BME280;26968;42.686;23.352;2023-06-14T01:15:34;94919.56;;;18.43;81.05
41234;BME280;26968;42.686;23.352;2023-06-14T01:18:02;94810.22;;;17.78;81.13
41234;BME280;26968;42.686;23.352;2023-06-14T01:20:32;94852.22;;;17.95;80.76
41234;BME280;26968;42.686;23.352;2023-06-14T01:22:58;94870.56;;;18.13;80.70
41234;BME280;26968;42.686;23.352;2023-06-14T01:25:25;94926.19;;;18.46;80.83
41234;BME280;26968;42.686;23.352;2023-06-14T01:28:03;94910.94;;;18.38;80.82
41234;BME280;26968;42.686;23.352;2023-06-14T01:30:29;94920.47;;;18.47;80.57
41234;BME280;26968;42.686;23.352;2023-06-14T01:32:56;94922.19;;;18.52;80.12
41234;BME280;26968;42.686;23.352;2023-06-14T01:35:23;94859.22;;;18.08;79.99
41234;BME280;26968;42.686;23.352;2023-06-14T01:37:49;94926.78;;;18.51;80.38
41234;BME280;26968;42.686;23.352;2023-06-14T01:40:15;94912.66;;;18.55;80.72
41234;BME280;26968;42.686;23.352;2023-06-14T01:42:43;94805.09;;;17.85;80.71
41234;BME280;26968;42.686;23.352;2023-06-14T01:45:11;94863.00;;;18.28;80.92
41234;BME280;26968;42.686;23.352;2023-06-14T01:47:36;94886.00;;;18.37;80.91
41234;BME280;26968;42.686;23.352;2023-06-14T01:50:03;94812.66;;;17.92;81.20
41234;BME280;26968;42.686;23.352;2023-06-14T01:52:28;94799.16;;;17.80;81.07
41234;BME280;26968;42.686;23.352;2023-06-14T01:54:54;94919.63;;;18.56;80.48
41234;BME280;26968;42.686;23.352;2023-06-14T01:57:19;94910.84;;;18.46;79.94
41234;BME280;26968;42.686;23.352;2023-06-14T01:59:45;94901.75;;;18.39;80.44
41234;BME280;26968;42.686;23.352;2023-06-14T02:02:14;94909.81;;;18.18;79.66
41234;BME280;26968;42.686;23.352;2023-06-14T02:04:40;94906.81;;;18.20;79.79
41234;BME280;26968;42.686;23.352;2023-06-14T02:07:06;94924.03;;;18.19;79.52
41234;BME280;26968;42.686;23.352;2023-06-14T02:09:31;94919.59;;;18.23;79.26
41234;BME280;26968;42.686;23.352;2023-06-14T02:11:56;94913.28;;;18.19;79.61
41234;BME280;26968;42.686;23.352;2023-06-14T02:14:23;94901.88;;;18.01;79.76
41234;BME280;26968;42.686;23.352;2023-06-14T02:16:48;94876.78;;;17.85;79.86
41234;BME280;26968;42.686;23.352;2023-06-14T02:19:15;94929.75;;;17.88;80.84
41234;BME280;26968;42.686;23.352;2023-06-14T02:21:41;94944.44;;;17.90;81.06
41234;BME280;26968;42.686;23.352;2023-06-14T02:24:07;94879.34;;;17.43;81.39
41234;BME280;26968;42.686;23.352;2023-06-14T02:26:32;94950.44;;;17.87;81.21
41234;BME280;26968;42.686;23.352;2023-06-14T02:28:58;94916.84;;;17.52;81.77
41234;BME280;26968;42.686;23.352;2023-06-14T02:31:23;94949.75;;;17.69;81.76
41234;BME280;26968;42.686;23.352;2023-06-14T02:33:49;94947.84;;;17.70;82.25
41234;BME280;26968;42.686;23.352;2023-06-14T02:36:15;94948.13;;;17.77;81.79
41234;BME280;26968;42.686;23.352;2023-06-14T02:38:40;94944.97;;;17.75;81.90
41234;BME280;26968;42.686;23.352;2023-06-14T02:41:06;94900.28;;;17.50;81.93
41234;BME280;26968;42.686;23.352;2023-06-14T02:43:31;94927.94;;;17.71;81.50
41234;BME280;26968;42.686;23.352;2023-06-14T02:45:57;94922.94;;;17.61;81.93
41234;BME280;26968;42.686;23.352;2023-06-14T02:48:22;94926.25;;;17.58;81.22
41234;BME280;26968;42.686;23.352;2023-06-14T02:50:48;94949.97;;;17.85;81.01
41234;BME280;26968;42.686;23.352;2023-06-14T02:53:13;94942.22;;;17.92;80.77
41234;BME280;26968;42.686;23.352;2023-06-14T02:55:38;94896.78;;;17.58;80.83
41234;BME280;26968;42.686;23.352;2023-06-14T02:58:05;94888.41;;;17.59;80.03
41234;BME280;26968;42.686;23.352;2023-06-14T03:00:31;94899.75;;;17.65;80.21
41234;BME280;26968;42.686;23.352;2023-06-14T03:02:56;94948.53;;;17.88;79.80
41234;BME280;26968;42.686;23.352;2023-06-14T03:05:22;94922.16;;;17.60;80.06
41234;BME280;26968;42.686;23.352;2023-06-14T03:07:48;94877.97;;;17.37;80.11
41234;BME280;26968;42.686;23.352;2023-06-14T03:10:13;94935.38;;;17.74;80.43
41234;BME280;26968;42.686;23.352;2023-06-14T03:12:39;94967.31;;;17.88;80.60
41234;BME280;26968;42.686;23.352;2023-06-14T03:15:05;94928.75;;;17.71;80.47
41234;BME280;26968;42.686;23.352;2023-06-14T03:17:30;94939.94;;;17.73;80.60
41234;BME280;26968;42.686;23.352;2023-06-14T03:19:59;94957.06;;;17.90;80.33
41234;BME280;26968;42.686;23.352;2023-06-14T03:22:25;94956.13;;;17.86;80.69
41234;BME280;26968;42.686;23.352;2023-06-14T03:24:51;94934.25;;;17.75;80.44
41234;BME280;26968;42.686;23.352;2023-06-14T03:27:17;94945.56;;;17.81;80.53
41234;BME280;26968;42.686;23.352;2023-06-14T03:29:43;94941.56;;;17.57;80.79
41234;BME280;26968;42.686;23.352;2023-06-14T03:32:09;94829.19;;;16.85;80.69
41234;BME280;26968;42.686;23.352;2023-06-14T03:34:34;94960.09;;;17.80;80.58
41234;BME280;26968;42.686;23.352;2023-06-14T03:37:00;94972.88;;;17.83;80.57
41234;BME280;26968;42.686;23.352;2023-06-14T03:39:26;94969.91;;;17.76;81.12
41234;BME280;26968;42.686;23.352;2023-06-14T03:41:51;94958.25;;;17.71;80.90
41234;BME280;26968;42.686;23.352;2023-06-14T03:44:18;94979.94;;;17.87;80.57
41234;BME280;26968;42.686;23.352;2023-06-14T03:46:45;94965.69;;;17.66;81.29
41234;BME280;26968;42.686;23.352;2023-06-14T03:49:11;94851.16;;;17.08;81.05
41234;BME280;26968;42.686;23.352;2023-06-14T03:51:36;94943.72;;;17.72;80.81
41234;BME280;26968;42.686;23.352;2023-06-14T03:54:02;94944.03;;;17.71;80.48
41234;BME280;26968;42.686;23.352;2023-06-14T03:56:27;94979.78;;;17.92;80.95
41234;BME280;26968;42.686;23.352;2023-06-14T03:58:53;94870.75;;;17.29;80.74
41234;BME280;26968;42.686;23.352;2023-06-14T04:01:18;94977.94;;;18.05;80.50
41234;BME280;26968;42.686;23.352;2023-06-14T04:03:44;94965.63;;;17.83;80.69
41234;BME280;26968;42.686;23.352;2023-06-14T04:06:09;94956.06;;;17.94;80.42
41234;BME280;26968;42.686;23.352;2023-06-14T04:08:35;94952.53;;;17.82;80.31
41234;BME280;26968;42.686;23.352;2023-06-14T04:11:01;94967.31;;;17.88;80.29
41234;BME280;26968;42.686;23.352;2023-06-14T04:13:26;94926.09;;;17.63;79.83
41234;BME280;26968;42.686;23.352;2023-06-14T04:15:52;94981.78;;;17.95;80.12
41234;BME280;26968;42.686;23.352;2023-06-14T04:18:17;94952.59;;;17.94;79.54
41234;BME280;26968;42.686;23.352;2023-06-14T04:20:45;94930.75;;;17.83;79.35
41234;BME280;26968;42.686;23.352;2023-06-14T04:23:17;94981.94;;;17.99;79.16
41234;BME280;26968;42.686;23.352;2023-06-14T04:25:46;94983.38;;;18.17;78.79
41234;BME280;26968;42.686;23.352;2023-06-14T04:28:13;94892.38;;;17.62;78.56
41234;BME280;26968;42.686;23.352;2023-06-14T04:30:43;94935.00;;;17.84;79.07
41234;BME280;26968;42.686;23.352;2023-06-14T04:33:13;94958.22;;;18.01;78.43
41234;BME280;26968;42.686;23.352;2023-06-14T04:35:39;94989.03;;;18.24;78.25
41234;BME280;26968;42.686;23.352;2023-06-14T04:38:06;94985.91;;;18.22;78.38
41234;BME280;26968;42.686;23.352;2023-06-14T04:40:38;94835.13;;;17.28;78.48
41234;BME280;26968;42.686;23.352;2023-06-14T04:43:08;94972.81;;;18.21;77.82
41234;BME280;26968;42.686;23.352;2023-06-14T04:45:35;94896.75;;;17.66;78.10
41234;BME280;26968;42.686;23.352;2023-06-14T04:48:02;94941.06;;;17.93;78.43
41234;BME280;26968;42.686;23.352;2023-06-14T04:50:29;94952.06;;;18.00;77.91
41234;BME280;26968;42.686;23.352;2023-06-14T04:52:55;94978.03;;;18.17;78.50
41234;BME280;26968;42.686;23.352;2023-06-14T04:55:20;94979.88;;;18.25;78.11
41234;BME280;26968;42.686;23.352;2023-06-14T04:57:46;94948.06;;;18.15;78.05
41234;BME280;26968;42.686;23.352;2023-06-14T05:00:11;94982.13;;;18.44;78.08
41234;BME280;26968;42.686;23.352;2023-06-14T05:02:37;94959.91;;;18.35;77.74
41234;BME280;26968;42.686;23.352;2023-06-14T05:05:04;94972.59;;;18.46;77.58
41234;BME280;26968;42.686;23.352;2023-06-14T05:07:34;94898.28;;;17.97;77.92
41234;BME280;26968;42.686;23.352;2023-06-14T05:10:03;94758.88;;;17.17;77.85
41234;BME280;26968;42.686;23.352;2023-06-14T05:12:28;94998.66;;;18.75;77.72
41234;BME280;26968;42.686;23.352;2023-06-14T05:14:54;94959.75;;;18.61;77.62
41234;BME280;26968;42.686;23.352;2023-06-14T05:17:19;95004.88;;;19.00;76.92
41234;BME280;26968;42.686;23.352;2023-06-14T05:19:46;94977.19;;;18.87;76.61
41234;BME280;26968;42.686;23.352;2023-06-14T05:22:11;94894.84;;;18.38;75.98
41234;BME280;26968;42.686;23.352;2023-06-14T05:24:37;94929.19;;;18.65;75.77
41234;BME280;26968;42.686;23.352;2023-06-14T05:27:02;94973.06;;;18.90;75.31
41234;BME280;26968;42.686;23.352;2023-06-14T05:29:40;94937.97;;;18.74;74.94
41234;BME280;26968;42.686;23.352;2023-06-14T05:32:06;94977.66;;;18.89;74.43
41234;BME280;26968;42.686;23.352;2023-06-14T05:34:31;94996.50;;;19.02;74.70
41234;BME280;26968;42.686;23.352;2023-06-14T05:36:56;94961.81;;;18.76;74.60
41234;BME280;26968;42.686;23.352;2023-06-14T05:39:24;94987.47;;;19.06;74.16
41234;BME280;26968;42.686;23.352;2023-06-14T05:41:53;94866.94;;;18.30;73.75
41234;BME280;26968;42.686;23.352;2023-06-14T05:44:21;94979.81;;;19.08;73.52
41234;BME280;26968;42.686;23.352;2023-06-14T05:46:47;95011.28;;;19.41;73.29
41234;BME280;26968;42.686;23.352;2023-06-14T05:49:12;94948.50;;;19.12;72.82
41234;BME280;26968;42.686;23.352;2023-06-14T05:51:37;95035.91;;;19.63;72.43
41234;BME280;26968;42.686;23.352;2023-06-14T05:54:03;95030.44;;;19.72;72.54
41234;BME280;26968;42.686;23.352;2023-06-14T05:56:28;94960.28;;;19.32;71.66
41234;BME280;26968;42.686;23.352;2023-06-14T05:58:54;94942.00;;;19.13;71.33
41234;BME280;26968;42.686;23.352;2023-06-14T06:01:20;94901.63;;;18.89;71.91
41234;BME280;26968;42.686;23.352;2023-06-14T06:03:45;95006.22;;;19.60;72.02
41234;BME280;26968;42.686;23.352;2023-06-14T06:06:12;95026.50;;;19.57;72.28
41234;BME280;26968;42.686;23.352;2023-06-14T06:08:37;94979.47;;;19.43;71.70
41234;BME280;26968;42.686;23.352;2023-06-14T06:11:03;95037.28;;;19.94;71.39
41234;BME280;26968;42.686;23.352;2023-06-14T06:13:29;95027.53;;;19.89;71.92
41234;BME280;26968;42.686;23.352;2023-06-14T06:15:54;94994.91;;;19.79;70.82
41234;BME280;26968;42.686;23.352;2023-06-14T06:18:19;94990.44;;;19.83;70.58
41234;BME280;26968;42.686;23.352;2023-06-14T06:20:46;94979.78;;;19.98;70.33
41234;BME280;26968;42.686;23.352;2023-06-14T06:23:12;95001.41;;;19.90;70.36
41234;BME280;26968;42.686;23.352;2023-06-14T06:25:38;94998.81;;;19.93;69.61
41234;BME280;26968;42.686;23.352;2023-06-14T06:28:03;95004.22;;;20.06;69.61
41234;BME280;26968;42.686;23.352;2023-06-14T06:30:28;95025.41;;;20.19;70.10
41234;BME280;26968;42.686;23.352;2023-06-14T06:32:55;95028.56;;;20.21;69.47
41234;BME280;26968;42.686;23.352;2023-06-14T06:35:20;94959.25;;;19.82;68.71
41234;BME280;26968;42.686;23.352;2023-06-14T06:37:46;95037.63;;;20.17;68.95
41234;BME280;26968;42.686;23.352;2023-06-14T06:40:11;94948.19;;;19.38;68.67
41234;BME280;26968;42.686;23.352;2023-06-14T06:42:37;95014.75;;;19.98;68.78
41234;BME280;26968;42.686;23.352;2023-06-14T06:45:03;95051.97;;;20.33;68.68
41234;BME280;26968;42.686;23.352;2023-06-14T06:47:29;94990.63;;;20.02;68.25
41234;BME280;26968;42.686;23.352;2023-06-14T06:49:55;94970.47;;;19.96;68.13
41234;BME280;26968;42.686;23.352;2023-06-14T06:52:20;94999.28;;;20.20;67.93
41234;BME280;26968;42.686;23.352;2023-06-14T06:54:46;95019.47;;;20.38;68.27
41234;BME280;26968;42.686;23.352;2023-06-14T06:57:11;95026.22;;;20.44;68.46
41234;BME280;26968;42.686;23.352;2023-06-14T06:59:37;95011.91;;;20.31;69.18
41234;BME280;26968;42.686;23.352;2023-06-14T07:02:03;94993.56;;;20.21;69.47
41234;BME280;26968;42.686;23.352;2023-06-14T07:04:29;95056.69;;;20.72;69.54
41234;BME280;26968;42.686;23.352;2023-06-14T07:06:56;95038.03;;;20.67;69.35
41234;BME280;26968;42.686;23.352;2023-06-14T07:09:21;94987.72;;;20.44;69.20
41234;BME280;26968;42.686;23.352;2023-06-14T07:11:48;94999.91;;;20.53;69.02
41234;BME280;26968;42.686;23.352;2023-06-14T07:14:13;95028.28;;;20.75;68.74
41234;BME280;26968;42.686;23.352;2023-06-14T07:16:41;95004.03;;;20.75;68.85
41234;BME280;26968;42.686;23.352;2023-06-14T07:19:08;95022.25;;;20.94;68.51
41234;BME280;26968;42.686;23.352;2023-06-14T07:21:34;94994.97;;;20.83;68.12
41234;BME280;26968;42.686;23.352;2023-06-14T07:24:00;95005.81;;;20.99;67.48
41234;BME280;26968;42.686;23.352;2023-06-14T07:26:25;95055.72;;;21.33;65.96
41234;BME280;26968;42.686;23.352;2023-06-14T07:28:51;95006.13;;;21.09;65.58
41234;BME280;26968;42.686;23.352;2023-06-14T07:31:17;95017.31;;;21.24;65.83
41234;BME280;26968;42.686;23.352;2023-06-14T07:33:44;94985.56;;;21.17;66.12
41234;BME280;26968;42.686;23.352;2023-06-14T07:36:09;95015.25;;;21.33;66.22
41234;BME280;26968;42.686;23.352;2023-06-14T07:38:35;95012.38;;;21.26;65.94
41234;BME280;26968;42.686;23.352;2023-06-14T07:41:02;95015.75;;;21.23;64.53
41234;BME280;26968;42.686;23.352;2023-06-14T07:43:27;95012.63;;;21.36;64.31
41234;BME280;26968;42.686;23.352;2023-06-14T07:45:52;94986.78;;;21.20;64.67
41234;BME280;26968;42.686;23.352;2023-06-14T07:48:18;95043.69;;;21.74;65.02
41234;BME280;26968;42.686;23.352;2023-06-14T07:50:44;95018.78;;;21.49;64.86
41234;BME280;26968;42.686;23.352;2023-06-14T07:53:09;95030.09;;;21.54;63.33
41234;BME280;26968;42.686;23.352;2023-06-14T07:55:35;95028.38;;;21.18;64.55
41234;BME280;26968;42.686;23.352;2023-06-14T07:58:03;95022.75;;;21.39;65.46
41234;BME280;26968;42.686;23.352;2023-06-14T08:00:28;94989.69;;;21.27;64.41
41234;BME280;26968;42.686;23.352;2023-06-14T08:02:57;95003.41;;;21.37;62.98
41234;BME280;26968;42.686;23.352;2023-06-14T08:05:24;95046.47;;;21.77;62.27
41234;BME280;26968;42.686;23.352;2023-06-14T08:07:52;95043.53;;;21.98;61.57
41234;BME280;26968;42.686;23.352;2023-06-14T08:10:17;95071.25;;;22.26;61.53
41234;BME280;26968;42.686;23.352;2023-06-14T08:12:43;95038.25;;;22.02;61.35
41234;BME280;26968;42.686;23.352;2023-06-14T08:15:09;95071.25;;;22.26;61.14
41234;BME280;26968;42.686;23.352;2023-06-14T08:17:35;95063.31;;;22.33;61.20
41234;BME280;26968;42.686;23.352;2023-06-14T08:20:00;95053.66;;;22.17;60.85
41234;BME280;26968;42.686;23.352;2023-06-14T08:22:26;95047.91;;;22.18;60.03
41234;BME280;26968;42.686;23.352;2023-06-14T08:24:53;95083.84;;;22.54;59.63
41234;BME280;26968;42.686;23.352;2023-06-14T08:27:19;95034.72;;;22.32;59.66
41234;BME280;26968;42.686;23.352;2023-06-14T08:29:45;95032.97;;;22.40;59.58
41234;BME280;26968;42.686;23.352;2023-06-14T08:32:13;95045.78;;;22.43;58.98
41234;BME280;26968;42.686;23.352;2023-06-14T08:34:39;95038.25;;;22.52;58.26
41234;BME280;26968;42.686;23.352;2023-06-14T08:37:05;95038.56;;;22.66;57.46
41234;BME280;26968;42.686;23.352;2023-06-14T08:39:31;95046.50;;;22.75;56.77
41234;BME280;26968;42.686;23.352;2023-06-14T08:41:57;95067.88;;;22.99;56.89
41234;BME280;26968;42.686;23.352;2023-06-14T08:44:23;95079.16;;;23.21;57.39
41234;BME280;26968;42.686;23.352;2023-06-14T08:46:56;95002.69;;;22.85;57.05
41234;BME280;26968;42.686;23.352;2023-06-14T08:49:25;95073.78;;;23.43;56.92
41234;BME280;26968;42.686;23.352;2023-06-14T08:51:58;95070.19;;;23.55;57.49
41234;BME280;26968;42.686;23.352;2023-06-14T08:54:28;95024.94;;;23.36;57.06
41234;BME280;26968;42.686;23.352;2023-06-14T08:56:56;95067.47;;;23.36;56.57
41234;BME280;26968;42.686;23.352;2023-06-14T08:59:31;94967.19;;;22.87;56.10
41234;BME280;26968;42.686;23.352;2023-06-14T09:02:05;95040.41;;;23.36;55.78
41234;BME280;26968;42.686;23.352;2023-06-14T09:04:30;95015.22;;;23.32;55.44
41234;BME280;26968;42.686;23.352;2023-06-14T09:06:57;95024.47;;;23.12;54.34
41234;BME280;26968;42.686;23.352;2023-06-14T09:09:25;94976.94;;;22.91;54.72
41234;BME280;26968;42.686;23.352;2023-06-14T09:11:51;95021.97;;;23.41;54.30
41234;BME280;26968;42.686;23.352;2023-06-14T09:14:18;95023.84;;;23.57;54.71
41234;BME280;26968;42.686;23.352;2023-06-14T09:16:44;95026.34;;;23.69;55.09
41234;BME280;26968;42.686;23.352;2023-06-14T09:19:20;95029.97;;;23.76;55.19
41234;BME280;26968;42.686;23.352;2023-06-14T09:21:47;95037.31;;;23.99;54.51
41234;BME280;26968;42.686;23.352;2023-06-14T09:24:13;95008.78;;;23.82;54.86
41234;BME280;26968;42.686;23.352;2023-06-14T09:26:41;94953.84;;;23.59;54.35
41234;BME280;26968;42.686;23.352;2023-06-14T09:29:06;95021.78;;;23.96;52.64
41234;BME280;26968;42.686;23.352;2023-06-14T09:31:32;95049.53;;;24.35;52.67
41234;BME280;26968;42.686;23.352;2023-06-14T09:33:58;95015.06;;;24.35;52.76
41234;BME280;26968;42.686;23.352;2023-06-14T09:36:27;95026.50;;;24.48;53.17
41234;BME280;26968;42.686;23.352;2023-06-14T09:38:57;95052.41;;;24.72;53.95
41234;BME280;26968;42.686;23.352;2023-06-14T09:41:33;95043.97;;;24.80;54.22
41234;BME280;26968;42.686;23.352;2023-06-14T09:44:08;95020.00;;;25.12;52.41
41234;BME280;26968;42.686;23.352;2023-06-14T09:46:35;95008.66;;;25.73;51.49
41234;BME280;26968;42.686;23.352;2023-06-14T09:49:02;94991.19;;;26.19;49.95
41234;BME280;26968;42.686;23.352;2023-06-14T09:51:28;95008.22;;;26.60;48.30
41234;BME280;26968;42.686;23.352;2023-06-14T09:53:59;95003.22;;;26.72;46.96
41234;BME280;26968;42.686;23.352;2023-06-14T09:56:35;95017.75;;;27.01;46.35
41234;BME280;26968;42.686;23.352;2023-06-14T09:59:04;94997.19;;;27.00;45.79
41234;BME280;26968;42.686;23.352;2023-06-14T10:01:31;94965.94;;;26.76;45.19
41234;BME280;26968;42.686;23.352;2023-06-14T10:04:04;94968.25;;;26.12;45.58
41234;BME280;26968;42.686;23.352;2023-06-14T10:06:31;95019.00;;;26.45;45.65
41234;BME280;26968;42.686;23.352;2023-06-14T10:08:59;94904.66;;;25.69;46.19
41234;BME280;26968;42.686;23.352;2023-06-14T10:11:28;95013.56;;;26.49;46.26
41234;BME280;26968;42.686;23.352;2023-06-14T10:13:58;95015.31;;;26.85;46.63
41234;BME280;26968;42.686;23.352;2023-06-14T10:16:34;95010.09;;;27.28;45.06
41234;BME280;26968;42.686;23.352;2023-06-14T10:19:17;94992.25;;;27.41;44.44
41234;BME280;26968;42.686;23.352;2023-06-14T10:22:16;95004.06;;;27.98;43.39
41234;BME280;26968;42.686;23.352;2023-06-14T10:24:44;94983.78;;;27.92;42.80
41234;BME280;26968;42.686;23.352;2023-06-14T10:27:13;94926.44;;;27.11;42.15
41234;BME280;26968;42.686;23.352;2023-06-14T10:32:25;94959.88;;;27.11;42.67
41234;BME280;26968;42.686;23.352;2023-06-14T10:34:55;95004.41;;;27.69;42.68
41234;BME280;26968;42.686;23.352;2023-06-14T10:37:21;95004.81;;;27.95;42.29
41234;BME280;26968;42.686;23.352;2023-06-14T10:39:47;94979.16;;;28.18;41.66
41234;BME280;26968;42.686;23.352;2023-06-14T10:42:13;94989.25;;;28.24;41.28
41234;BME280;26968;42.686;23.352;2023-06-14T10:44:49;94946.41;;;27.72;41.57
41234;BME280;26968;42.686;23.352;2023-06-14T10:47:35;94973.28;;;27.84;42.41
41234;BME280;26968;42.686;23.352;2023-06-14T10:50:08;94992.75;;;27.93;42.52
41234;BME280;26968;42.686;23.352;2023-06-14T10:52:34;94989.66;;;27.91;42.09
41234;BME280;26968;42.686;23.352;2023-06-14T10:55:14;94986.53;;;27.89;43.25
41234;BME280;26968;42.686;23.352;2023-06-14T10:57:43;94985.34;;;27.79;43.70
41234;BME280;26968;42.686;23.352;2023-06-14T11:00:12;94901.59;;;27.26;44.96
41234;BME280;26968;42.686;23.352;2023-06-14T11:05:27;94963.16;;;27.95;43.70
41234;BME280;26968;42.686;23.352;2023-06-14T11:08:16;94873.63;;;27.83;43.51
41234;BME280;26968;42.686;23.352;2023-06-14T11:10:43;94952.53;;;28.75;41.66
41234;BME280;26968;42.686;23.352;2023-06-14T11:13:11;94953.69;;;28.88;39.61
41234;BME280;26968;42.686;23.352;2023-06-14T11:15:37;94955.16;;;29.10;39.65
41234;BME280;26968;42.686;23.352;2023-06-14T11:18:07;94929.28;;;29.40;41.10
41234;BME280;26968;42.686;23.352;2023-06-14T11:20:34;94953.13;;;29.95;39.27
41234;BME280;26968;42.686;23.352;2023-06-14T11:23:01;94932.84;;;29.85;38.41
41234;BME280;26968;42.686;23.352;2023-06-14T11:25:27;94931.38;;;30.21;37.67
41234;BME280;26968;42.686;23.352;2023-06-14T11:27:56;94917.00;;;30.58;38.59
41234;BME280;26968;42.686;23.352;2023-06-14T11:30:23;94903.34;;;30.55;36.97
41234;BME280;26968;42.686;23.352;2023-06-14T11:32:49;94890.94;;;30.43;35.62
41234;BME280;26968;42.686;23.352;2023-06-14T11:35:16;94936.25;;;30.44;36.64
41234;BME280;26968;42.686;23.352;2023-06-14T11:37:42;94935.59;;;30.29;36.67
41234;BME280;26968;42.686;23.352;2023-06-14T11:40:10;94942.44;;;30.52;36.76
41234;BME280;26968;42.686;23.352;2023-06-14T11:42:38;94939.00;;;30.82;36.80
41234;BME280;26968;42.686;23.352;2023-06-14T11:45:04;94939.88;;;31.09;37.44
41234;BME280;26968;42.686;23.352;2023-06-14T11:47:32;94919.78;;;31.46;35.26
41234;BME280;26968;42.686;23.352;2023-06-14T11:50:02;94905.88;;;31.33;36.04
41234;BME280;26968;42.686;23.352;2023-06-14T11:52:29;94911.34;;;31.64;35.40
41234;BME280;26968;42.686;23.352;2023-06-14T11:54:56;94902.00;;;31.58;34.45
41234;BME280;26968;42.686;23.352;2023-06-14T11:57:22;94865.28;;;31.52;35.15
41234;BME280;26968;42.686;23.352;2023-06-14T11:59:48;94887.50;;;31.61;34.69
41234;BME280;26968;42.686;23.352;2023-06-14T12:02:15;94908.63;;;31.60;34.73
41234;BME280;26968;42.686;23.352;2023-06-14T12:04:41;94892.56;;;31.35;35.04
41234;BME280;26968;42.686;23.352;2023-06-14T12:07:14;94872.91;;;31.40;34.80
41234;BME280;26968;42.686;23.352;2023-06-14T12:12:25;94888.78;;;32.03;34.71
41234;BME280;26968;42.686;23.352;2023-06-14T12:14:51;94886.72;;;32.07;33.28
41234;BME280;26968;42.686;23.352;2023-06-14T12:17:18;94887.22;;;32.25;34.17
41234;BME280;26968;42.686;23.352;2023-06-14T12:19:48;94888.47;;;32.20;33.37
41234;BME280;26968;42.686;23.352;2023-06-14T12:22:15;94864.81;;;31.57;35.42
41234;BME280;26968;42.686;23.352;2023-06-14T12:24:45;94864.94;;;31.50;35.76
41234;BME280;26968;42.686;23.352;2023-06-14T12:27:14;94884.22;;;31.69;35.59
41234;BME280;26968;42.686;23.352;2023-06-14T12:29:44;94861.00;;;31.24;36.18
41234;BME280;26968;42.686;23.352;2023-06-14T12:32:09;94849.69;;;30.91;36.05
41234;BME280;26968;42.686;23.352;2023-06-14T12:34:35;94880.34;;;31.13;35.90
41234;BME280;26968;42.686;23.352;2023-06-14T12:37:01;94868.66;;;30.79;36.92
41234;BME280;26968;42.686;23.352;2023-06-14T12:39:26;94845.59;;;30.42;37.29
41234;BME280;26968;42.686;23.352;2023-06-14T12:41:51;94869.81;;;30.44;37.46
41234;BME280;26968;42.686;23.352;2023-06-14T12:44:17;94834.56;;;30.15;37.50
41234;BME280;26968;42.686;23.352;2023-06-14T12:46:42;94860.41;;;30.11;38.05
41234;BME280;26968;42.686;23.352;2023-06-14T12:49:10;94862.19;;;29.83;37.95
41234;BME280;26968;42.686;23.352;2023-06-14T12:51:37;94862.69;;;29.68;38.83
41234;BME280;26968;42.686;23.352;2023-06-14T12:54:03;94828.59;;;29.38;40.05
41234;BME280;26968;42.686;23.352;2023-06-14T12:56:28;94843.47;;;29.30;39.39
41234;BME280;26968;42.686;23.352;2023-06-14T12:58:54;94865.34;;;29.23;40.77
41234;BME280;26968;42.686;23.352;2023-06-14T13:01:20;94825.75;;;28.94;40.17